FKYS/NSI METAR and TAF weather

Enter ICAO airport designator
Station Type Date Time Source
FKYS METAR 2019/07/15 20:00 UTC NOAA

FKYS 152000Z 24005KT 8000 SCT006 21/21 Q1018 BECMG BKN006


Station Type Date Time Source
FKYS Decoded METAR 2019/07/15 20:00 UTC NOAA

Yaounde, Cameroon (FKYS) 03-50N 011-31E 760M
Jul 15, 2019 - 04:00 PM EDT / 2019.07.15 2000 UTC
Wind: from the WSW (240 degrees) at 6 MPH (5 KT):0
Visibility: 4 mile(s):0
Sky conditions: partly cloudy
Temperature: 69 F (21 C)
Dew Point: 69 F (21 C)
Relative Humidity: 100%
Pressure (altimeter): 30.06 in. Hg (1018 hPa)
ob: FKYS 152000Z 24005KT 8000 SCT006 21/21 Q1018 BECMG BKN006
cycle: 20

Station Type Date Time Source
FKYS TAF 2019/07/15 18:36 UTC NOAA

TAF TAF FKYS 151700Z 1518/1618 26005KT 9999 TS BKN006 FEW020CB
BECMG 1518/1520 NSW
TEMPO 1602/1607 2500 BR

Example: see airport list